KLNR

Tri-County Regional Airport

Lone Rock, Wisconsin, USA
METAR KLNR 221712Z AUTO 01004KT 10SM OVC016 17/14 A3010 RMK AO2 T01720144
Observed Flight Rules
May-22 @ 17:12 UTC (39 minutes ago) Marginal Visual Flight Rules
Wind Visibility Clouds
10° at 4 knots 10 miles
  • Overcast at 1,600' AGL
Temperatures Readings
Current 17°C / 63°F
Dewpoint 14°C / 57°F
Humidity 83%
Altimeter 30.1" Hg
Pressure 1019 hPa
Elevation 217
METAR KLNR 221712Z AUTO 01004KT 10SM OVC016 17/14 A3010 RMK AO2 T01720144
Observed Flight Rules
May-22 @ 17:12 UTC
(39 minutes ago)
MVFR
Wind Visibility
10° at 4 knots 10 miles
Clouds
  • Overcast at 1,600' AGL
Temperature Dewpoint
17°C / 63°F 14°C / 57°F
Humidity Altimeter Pressure
83% 30.1" Hg 1019 hPa